sensor_id;sensor_type;location;lat;lon;timestamp;P1;durP1;ratioP1;P2;durP2;ratioP2
781;SDS011;374;52.568;13.402;2023-08-06T00:00:04;11.10;;;10.10;;
781;SDS011;374;52.568;13.402;2023-08-06T00:02:30;10.77;;;9.87;;
781;SDS011;374;52.568;13.402;2023-08-06T00:04:55;11.80;;;10.63;;
781;SDS011;374;52.568;13.402;2023-08-06T00:07:24;11.40;;;10.37;;
781;SDS011;374;52.568;13.402;2023-08-06T00:09:52;10.77;;;9.80;;
781;SDS011;374;52.568;13.402;2023-08-06T00:12:18;11.50;;;10.40;;
781;SDS011;374;52.568;13.402;2023-08-06T00:14:43;11.13;;;10.23;;
781;SDS011;374;52.568;13.402;2023-08-06T00:17:09;12.03;;;10.93;;
781;SDS011;374;52.568;13.402;2023-08-06T00:19:34;10.90;;;10.00;;
781;SDS011;374;52.568;13.402;2023-08-06T00:22:00;11.27;;;10.27;;
781;SDS011;374;52.568;13.402;2023-08-06T00:24:29;10.70;;;9.70;;
781;SDS011;374;52.568;13.402;2023-08-06T00:26:55;11.13;;;9.43;;
781;SDS011;374;52.568;13.402;2023-08-06T00:29:20;11.20;;;10.30;;
781;SDS011;374;52.568;13.402;2023-08-06T00:31:46;10.73;;;9.73;;
781;SDS011;374;52.568;13.402;2023-08-06T00:34:11;10.10;;;9.20;;
781;SDS011;374;52.568;13.402;2023-08-06T00:36:37;11.17;;;10.17;;
781;SDS011;374;52.568;13.402;2023-08-06T00:39:02;10.77;;;9.87;;
781;SDS011;374;52.568;13.402;2023-08-06T00:41:28;10.87;;;9.93;;
781;SDS011;374;52.568;13.402;2023-08-06T00:43:53;10.67;;;9.80;;
781;SDS011;374;52.568;13.402;2023-08-06T00:46:19;11.97;;;10.87;;
781;SDS011;374;52.568;13.402;2023-08-06T00:48:45;10.83;;;9.80;;
781;SDS011;374;52.568;13.402;2023-08-06T00:51:11;10.57;;;9.50;;
781;SDS011;374;52.568;13.402;2023-08-06T00:53:38;10.30;;;9.60;;
781;SDS011;374;52.568;13.402;2023-08-06T00:56:04;11.53;;;10.53;;
781;SDS011;374;52.568;13.402;2023-08-06T00:58:30;11.20;;;10.30;;
781;SDS011;374;52.568;13.402;2023-08-06T01:01:04;11.30;;;10.30;;
781;SDS011;374;52.568;13.402;2023-08-06T01:03:29;10.17;;;9.37;;
781;SDS011;374;52.568;13.402;2023-08-06T01:05:55;11.73;;;10.43;;
781;SDS011;374;52.568;13.402;2023-08-06T01:08:31;11.30;;;10.30;;
781;SDS011;374;52.568;13.402;2023-08-06T01:14:10;10.30;;;9.43;;
781;SDS011;374;52.568;13.402;2023-08-06T01:16:43;10.67;;;9.77;;
781;SDS011;374;52.568;13.402;2023-08-06T01:19:18;10.43;;;9.60;;
781;SDS011;374;52.568;13.402;2023-08-06T01:21:44;9.83;;;9.03;;
781;SDS011;374;52.568;13.402;2023-08-06T01:24:10;10.40;;;9.50;;
781;SDS011;374;52.568;13.402;2023-08-06T01:26:43;11.03;;;10.03;;
781;SDS011;374;52.568;13.402;2023-08-06T01:31:51;9.57;;;8.77;;
781;SDS011;374;52.568;13.402;2023-08-06T01:34:22;10.30;;;9.20;;
781;SDS011;374;52.568;13.402;2023-08-06T01:36:50;9.97;;;9.03;;
781;SDS011;374;52.568;13.402;2023-08-06T01:39:17;9.83;;;8.93;;
781;SDS011;374;52.568;13.402;2023-08-06T01:41:45;9.90;;;9.03;;
781;SDS011;374;52.568;13.402;2023-08-06T01:44:12;10.40;;;9.50;;
781;SDS011;374;52.568;13.402;2023-08-06T01:46:37;10.50;;;9.60;;
781;SDS011;374;52.568;13.402;2023-08-06T01:49:03;11.37;;;8.43;;
781;SDS011;374;52.568;13.402;2023-08-06T01:51:28;9.77;;;8.30;;
781;SDS011;374;52.568;13.402;2023-08-06T01:53:53;9.70;;;8.90;;
781;SDS011;374;52.568;13.402;2023-08-06T01:56:19;8.30;;;7.63;;
781;SDS011;374;52.568;13.402;2023-08-06T01:58:44;9.70;;;8.90;;
781;SDS011;374;52.568;13.402;2023-08-06T02:01:13;9.50;;;8.70;;
781;SDS011;374;52.568;13.402;2023-08-06T02:03:38;9.70;;;8.90;;
781;SDS011;374;52.568;13.402;2023-08-06T02:06:07;9.37;;;8.47;;
781;SDS011;374;52.568;13.402;2023-08-06T02:08:32;9.83;;;8.90;;
781;SDS011;374;52.568;13.402;2023-08-06T02:10:58;10.10;;;9.30;;
781;SDS011;374;52.568;13.402;2023-08-06T02:13:24;9.60;;;8.80;;
781;SDS011;374;52.568;13.402;2023-08-06T02:15:49;9.53;;;8.80;;
781;SDS011;374;52.568;13.402;2023-08-06T02:18:15;10.17;;;9.27;;
781;SDS011;374;52.568;13.402;2023-08-06T02:20:41;9.83;;;8.90;;
781;SDS011;374;52.568;13.402;2023-08-06T02:23:07;9.90;;;9.20;;
781;SDS011;374;52.568;13.402;2023-08-06T02:25:33;10.40;;;9.53;;
781;SDS011;374;52.568;13.402;2023-08-06T02:27:59;9.87;;;9.07;;
781;SDS011;374;52.568;13.402;2023-08-06T02:30:24;10.73;;;9.73;;
781;SDS011;374;52.568;13.402;2023-08-06T02:32:50;10.50;;;9.60;;
781;SDS011;374;52.568;13.402;2023-08-06T02:35:15;11.40;;;10.40;;
781;SDS011;374;52.568;13.402;2023-08-06T02:37:41;11.13;;;10.13;;
781;SDS011;374;52.568;13.402;2023-08-06T02:40:07;10.40;;;9.50;;
781;SDS011;374;52.568;13.402;2023-08-06T02:42:32;11.07;;;9.50;;
781;SDS011;374;52.568;13.402;2023-08-06T02:44:58;10.13;;;9.23;;
781;SDS011;374;52.568;13.402;2023-08-06T02:47:23;10.30;;;9.30;;
781;SDS011;374;52.568;13.402;2023-08-06T02:49:49;13.33;;;10.37;;
781;SDS011;374;52.568;13.402;2023-08-06T02:52:14;11.10;;;9.97;;
781;SDS011;374;52.568;13.402;2023-08-06T02:54:40;11.40;;;10.20;;
781;SDS011;374;52.568;13.402;2023-08-06T02:57:05;11.10;;;9.97;;
781;SDS011;374;52.568;13.402;2023-08-06T02:59:31;10.80;;;9.90;;
781;SDS011;374;52.568;13.402;2023-08-06T03:01:57;9.93;;;9.07;;
781;SDS011;374;52.568;13.402;2023-08-06T03:04:23;10.47;;;9.67;;
781;SDS011;374;52.568;13.402;2023-08-06T03:06:49;10.67;;;9.70;;
781;SDS011;374;52.568;13.402;2023-08-06T03:09:15;10.80;;;9.67;;
781;SDS011;374;52.568;13.402;2023-08-06T03:11:41;11.13;;;10.13;;
781;SDS011;374;52.568;13.402;2023-08-06T03:14:07;9.80;;;9.00;;
781;SDS011;374;52.568;13.402;2023-08-06T03:16:32;10.37;;;9.47;;
781;SDS011;374;52.568;13.402;2023-08-06T03:18:58;9.80;;;8.90;;
781;SDS011;374;52.568;13.402;2023-08-06T03:21:24;9.10;;;8.30;;
781;SDS011;374;52.568;13.402;2023-08-06T03:23:49;8.40;;;7.70;;
781;SDS011;374;52.568;13.402;2023-08-06T03:26:15;9.83;;;8.83;;
781;SDS011;374;52.568;13.402;2023-08-06T03:28:41;9.73;;;8.93;;
781;SDS011;374;52.568;13.402;2023-08-06T03:31:06;9.10;;;8.40;;
781;SDS011;374;52.568;13.402;2023-08-06T03:33:32;10.13;;;9.13;;
781;SDS011;374;52.568;13.402;2023-08-06T03:35:57;9.40;;;8.60;;
781;SDS011;374;52.568;13.402;2023-08-06T03:38:23;8.90;;;8.10;;
781;SDS011;374;52.568;13.402;2023-08-06T03:40:48;9.70;;;8.80;;
781;SDS011;374;52.568;13.402;2023-08-06T03:43:14;9.53;;;8.73;;
781;SDS011;374;52.568;13.402;2023-08-06T03:45:40;9.47;;;8.57;;
781;SDS011;374;52.568;13.402;2023-08-06T03:48:06;9.30;;;8.50;;
781;SDS011;374;52.568;13.402;2023-08-06T03:50:31;10.40;;;9.50;;
781;SDS011;374;52.568;13.402;2023-08-06T03:52:57;9.23;;;8.43;;
781;SDS011;374;52.568;13.402;2023-08-06T03:55:22;9.27;;;8.37;;
781;SDS011;374;52.568;13.402;2023-08-06T03:57:48;9.67;;;8.73;;
781;SDS011;374;52.568;13.402;2023-08-06T04:00:13;8.80;;;8.00;;
781;SDS011;374;52.568;13.402;2023-08-06T04:02:39;9.70;;;8.70;;
781;SDS011;374;52.568;13.402;2023-08-06T04:05:04;10.67;;;9.67;;
781;SDS011;374;52.568;13.402;2023-08-06T04:07:30;9.63;;;8.80;;
781;SDS011;374;52.568;13.402;2023-08-06T04:10:02;8.77;;;8.03;;
781;SDS011;374;52.568;13.402;2023-08-06T04:12:29;9.70;;;8.80;;
781;SDS011;374;52.568;13.402;2023-08-06T04:14:56;9.70;;;8.80;;
781;SDS011;374;52.568;13.402;2023-08-06T04:17:22;9.50;;;8.70;;
781;SDS011;374;52.568;13.402;2023-08-06T04:19:53;8.73;;;7.93;;
781;SDS011;374;52.568;13.402;2023-08-06T04:22:19;8.50;;;7.70;;
781;SDS011;374;52.568;13.402;2023-08-06T04:24:45;9.77;;;8.87;;
781;SDS011;374;52.568;13.402;2023-08-06T04:27:11;8.67;;;7.90;;
781;SDS011;374;52.568;13.402;2023-08-06T04:29:37;7.90;;;7.20;;
781;SDS011;374;52.568;13.402;2023-08-06T04:32:05;8.53;;;7.73;;
781;SDS011;374;52.568;13.402;2023-08-06T04:34:31;7.87;;;7.27;;
781;SDS011;374;52.568;13.402;2023-08-06T04:36:57;8.97;;;8.20;;
781;SDS011;374;52.568;13.402;2023-08-06T04:39:23;8.43;;;7.73;;
781;SDS011;374;52.568;13.402;2023-08-06T04:41:48;8.50;;;7.80;;
781;SDS011;374;52.568;13.402;2023-08-06T04:44:14;9.47;;;8.67;;
781;SDS011;374;52.568;13.402;2023-08-06T04:46:39;8.13;;;7.43;;
781;SDS011;374;52.568;13.402;2023-08-06T04:49:05;8.33;;;7.63;;
781;SDS011;374;52.568;13.402;2023-08-06T04:51:30;9.20;;;7.77;;
781;SDS011;374;52.568;13.402;2023-08-06T04:53:56;8.67;;;7.97;;
781;SDS011;374;52.568;13.402;2023-08-06T04:56:22;9.10;;;8.20;;
781;SDS011;374;52.568;13.402;2023-08-06T04:58:51;9.00;;;8.10;;
781;SDS011;374;52.568;13.402;2023-08-06T05:01:16;9.00;;;8.30;;
781;SDS011;374;52.568;13.402;2023-08-06T05:03:42;10.10;;;9.20;;
781;SDS011;374;52.568;13.402;2023-08-06T05:06:07;8.97;;;8.17;;
781;SDS011;374;52.568;13.402;2023-08-06T05:08:33;9.00;;;8.17;;
781;SDS011;374;52.568;13.402;2023-08-06T05:10:58;9.17;;;8.27;;
781;SDS011;374;52.568;13.402;2023-08-06T05:13:24;9.30;;;8.50;;
781;SDS011;374;52.568;13.402;2023-08-06T05:15:50;9.47;;;8.53;;
781;SDS011;374;52.568;13.402;2023-08-06T05:18:16;8.93;;;8.13;;
781;SDS011;374;52.568;13.402;2023-08-06T05:20:41;8.97;;;8.27;;
781;SDS011;374;52.568;13.402;2023-08-06T05:23:07;9.50;;;8.60;;
781;SDS011;374;52.568;13.402;2023-08-06T05:25:37;10.87;;;9.77;;
781;SDS011;374;52.568;13.402;2023-08-06T05:28:03;7.40;;;6.70;;
781;SDS011;374;52.568;13.402;2023-08-06T05:30:28;8.80;;;8.10;;
781;SDS011;374;52.568;13.402;2023-08-06T05:32:54;9.13;;;8.43;;
781;SDS011;374;52.568;13.402;2023-08-06T05:35:20;10.80;;;9.70;;
781;SDS011;374;52.568;13.402;2023-08-06T05:37:46;9.27;;;8.40;;
781;SDS011;374;52.568;13.402;2023-08-06T05:40:11;8.60;;;7.70;;
781;SDS011;374;52.568;13.402;2023-08-06T05:42:37;8.10;;;7.40;;
781;SDS011;374;52.568;13.402;2023-08-06T05:45:02;8.57;;;7.83;;
781;SDS011;374;52.568;13.402;2023-08-06T05:47:28;8.83;;;8.13;;
781;SDS011;374;52.568;13.402;2023-08-06T05:49:53;9.60;;;8.80;;
781;SDS011;374;52.568;13.402;2023-08-06T05:52:19;9.33;;;8.53;;
781;SDS011;374;52.568;13.402;2023-08-06T05:54:44;10.37;;;8.87;;
781;SDS011;374;52.568;13.402;2023-08-06T05:57:10;9.90;;;8.87;;
781;SDS011;374;52.568;13.402;2023-08-06T05:59:35;11.70;;;9.07;;
781;SDS011;374;52.568;13.402;2023-08-06T06:02:01;10.00;;;9.10;;
781;SDS011;374;52.568;13.402;2023-08-06T06:04:27;10.77;;;9.67;;
781;SDS011;374;52.568;13.402;2023-08-06T06:06:55;10.23;;;9.33;;
781;SDS011;374;52.568;13.402;2023-08-06T06:09:21;9.90;;;9.00;;
781;SDS011;374;52.568;13.402;2023-08-06T06:11:46;9.10;;;8.20;;
781;SDS011;374;52.568;13.402;2023-08-06T06:14:14;10.00;;;9.13;;
781;SDS011;374;52.568;13.402;2023-08-06T06:16:39;9.77;;;8.80;;
781;SDS011;374;52.568;13.402;2023-08-06T06:19:04;9.20;;;8.40;;
781;SDS011;374;52.568;13.402;2023-08-06T06:21:30;9.30;;;8.50;;
781;SDS011;374;52.568;13.402;2023-08-06T06:23:55;9.60;;;8.70;;
781;SDS011;374;52.568;13.402;2023-08-06T06:26:21;10.00;;;9.20;;
781;SDS011;374;52.568;13.402;2023-08-06T06:28:47;10.03;;;9.13;;
781;SDS011;374;52.568;13.402;2023-08-06T06:31:12;10.13;;;9.13;;
781;SDS011;374;52.568;13.402;2023-08-06T06:33:38;11.20;;;10.20;;
781;SDS011;374;52.568;13.402;2023-08-06T06:36:03;10.30;;;9.30;;
781;SDS011;374;52.568;13.402;2023-08-06T06:38:29;9.77;;;8.87;;
781;SDS011;374;52.568;13.402;2023-08-06T06:40:55;10.07;;;9.27;;
781;SDS011;374;52.568;13.402;2023-08-06T06:43:24;10.23;;;9.33;;
781;SDS011;374;52.568;13.402;2023-08-06T06:45:53;10.67;;;9.67;;
781;SDS011;374;52.568;13.402;2023-08-06T06:48:28;10.17;;;9.23;;
781;SDS011;374;52.568;13.402;2023-08-06T06:50:56;10.17;;;9.07;;
781;SDS011;374;52.568;13.402;2023-08-06T06:53:22;10.33;;;9.33;;
781;SDS011;374;52.568;13.402;2023-08-06T06:55:54;11.13;;;10.17;;
781;SDS011;374;52.568;13.402;2023-08-06T06:58:20;10.33;;;9.23;;
781;SDS011;374;52.568;13.402;2023-08-06T07:00:46;11.07;;;10.07;;
781;SDS011;374;52.568;13.402;2023-08-06T07:03:12;10.90;;;9.90;;
781;SDS011;374;52.568;13.402;2023-08-06T07:05:38;10.47;;;9.60;;
781;SDS011;374;52.568;13.402;2023-08-06T07:08:03;10.50;;;9.60;;
781;SDS011;374;52.568;13.402;2023-08-06T07:10:29;12.07;;;10.97;;
781;SDS011;374;52.568;13.402;2023-08-06T07:12:54;11.13;;;10.10;;
781;SDS011;374;52.568;13.402;2023-08-06T07:15:20;12.03;;;10.93;;
781;SDS011;374;52.568;13.402;2023-08-06T07:17:45;11.33;;;10.33;;
781;SDS011;374;52.568;13.402;2023-08-06T07:20:11;11.70;;;10.70;;
781;SDS011;374;52.568;13.402;2023-08-06T07:22:36;11.13;;;10.23;;
781;SDS011;374;52.568;13.402;2023-08-06T07:25:02;10.87;;;9.80;;
781;SDS011;374;52.568;13.402;2023-08-06T07:27:27;12.90;;;11.80;;
781;SDS011;374;52.568;13.402;2023-08-06T07:29:53;11.63;;;10.53;;
781;SDS011;374;52.568;13.402;2023-08-06T07:32:18;11.97;;;10.87;;
781;SDS011;374;52.568;13.402;2023-08-06T07:34:44;12.57;;;11.57;;
781;SDS011;374;52.568;13.402;2023-08-06T07:37:09;11.40;;;10.40;;
781;SDS011;374;52.568;13.402;2023-08-06T07:39:35;11.07;;;10.07;;
781;SDS011;374;52.568;13.402;2023-08-06T07:42:02;11.30;;;10.30;;
781;SDS011;374;52.568;13.402;2023-08-06T07:44:30;11.83;;;10.90;;
781;SDS011;374;52.568;13.402;2023-08-06T07:46:59;10.60;;;9.70;;
781;SDS011;374;52.568;13.402;2023-08-06T07:49:24;11.10;;;10.10;;
781;SDS011;374;52.568;13.402;2023-08-06T07:51:50;9.87;;;8.97;;
781;SDS011;374;52.568;13.402;2023-08-06T07:54:17;9.77;;;8.97;;
781;SDS011;374;52.568;13.402;2023-08-06T07:56:43;10.70;;;9.80;;
781;SDS011;374;52.568;13.402;2023-08-06T07:59:08;10.77;;;9.87;;
781;SDS011;374;52.568;13.402;2023-08-06T08:01:34;11.17;;;10.27;;
781;SDS011;374;52.568;13.402;2023-08-06T08:03:59;10.97;;;9.97;;
781;SDS011;374;52.568;13.402;2023-08-06T08:06:25;11.20;;;10.30;;
781;SDS011;374;52.568;13.402;2023-08-06T08:08:51;11.47;;;10.37;;
781;SDS011;374;52.568;13.402;2023-08-06T08:11:16;11.40;;;10.27;;
781;SDS011;374;52.568;13.402;2023-08-06T08:13:43;15.20;;;11.13;;
781;SDS011;374;52.568;13.402;2023-08-06T08:16:09;11.67;;;10.23;;
781;SDS011;374;52.568;13.402;2023-08-06T08:18:34;12.07;;;10.87;;
781;SDS011;374;52.568;13.402;2023-08-06T08:21:00;12.77;;;11.67;;
781;SDS011;374;52.568;13.402;2023-08-06T08:23:25;10.97;;;9.97;;
781;SDS011;374;52.568;13.402;2023-08-06T08:25:51;13.23;;;11.20;;
781;SDS011;374;52.568;13.402;2023-08-06T08:28:16;11.53;;;10.43;;
781;SDS011;374;52.568;13.402;2023-08-06T08:30:42;12.03;;;10.70;;
781;SDS011;374;52.568;13.402;2023-08-06T08:33:07;13.67;;;12.37;;
781;SDS011;374;52.568;13.402;2023-08-06T08:35:33;12.60;;;11.50;;
781;SDS011;374;52.568;13.402;2023-08-06T08:38:00;12.83;;;11.73;;
781;SDS011;374;52.568;13.402;2023-08-06T08:40:30;13.17;;;11.97;;
781;SDS011;374;52.568;13.402;2023-08-06T08:42:58;15.63;;;14.10;;
781;SDS011;374;52.568;13.402;2023-08-06T08:45:26;13.67;;;12.30;;
781;SDS011;374;52.568;13.402;2023-08-06T08:47:56;13.37;;;12.17;;
781;SDS011;374;52.568;13.402;2023-08-06T08:50:22;13.80;;;12.40;;
781;SDS011;374;52.568;13.402;2023-08-06T08:52:47;14.07;;;12.83;;
781;SDS011;374;52.568;13.402;2023-08-06T08:55:15;14.60;;;12.63;;
781;SDS011;374;52.568;13.402;2023-08-06T08:57:41;14.63;;;13.27;;
781;SDS011;374;52.568;13.402;2023-08-06T09:00:07;12.20;;;11.10;;
781;SDS011;374;52.568;13.402;2023-08-06T09:02:33;14.90;;;12.87;;
781;SDS011;374;52.568;13.402;2023-08-06T09:05:02;14.27;;;12.83;;
781;SDS011;374;52.568;13.402;2023-08-06T09:07:31;15.00;;;13.73;;
781;SDS011;374;52.568;13.402;2023-08-06T09:10:03;14.90;;;13.60;;
781;SDS011;374;52.568;13.402;2023-08-06T09:12:31;12.50;;;11.40;;
781;SDS011;374;52.568;13.402;2023-08-06T09:14:57;14.97;;;13.53;;
781;SDS011;374;52.568;13.402;2023-08-06T09:17:26;13.70;;;12.40;;
781;SDS011;374;52.568;13.402;2023-08-06T09:19:53;12.40;;;11.30;;
781;SDS011;374;52.568;13.402;2023-08-06T09:22:18;14.33;;;12.83;;
781;SDS011;374;52.568;13.402;2023-08-06T09:24:44;14.07;;;12.77;;
781;SDS011;374;52.568;13.402;2023-08-06T09:27:13;15.90;;;14.40;;
781;SDS011;374;52.568;13.402;2023-08-06T09:29:42;14.30;;;13.00;;
781;SDS011;374;52.568;13.402;2023-08-06T09:32:10;14.37;;;12.93;;
781;SDS011;374;52.568;13.402;2023-08-06T09:34:38;16.00;;;13.30;;
781;SDS011;374;52.568;13.402;2023-08-06T09:37:04;15.40;;;13.90;;
781;SDS011;374;52.568;13.402;2023-08-06T09:39:30;13.87;;;12.63;;
781;SDS011;374;52.568;13.402;2023-08-06T09:41:56;15.13;;;13.63;;
781;SDS011;374;52.568;13.402;2023-08-06T09:44:24;16.00;;;14.40;;
781;SDS011;374;52.568;13.402;2023-08-06T09:46:52;14.93;;;13.43;;
781;SDS011;374;52.568;13.402;2023-08-06T09:49:25;14.80;;;13.40;;
781;SDS011;374;52.568;13.402;2023-08-06T09:52:08;13.57;;;12.17;;
781;SDS011;374;52.568;13.402;2023-08-06T09:54:35;13.63;;;12.40;;
781;SDS011;374;52.568;13.402;2023-08-06T09:57:03;13.17;;;11.87;;
781;SDS011;374;52.568;13.402;2023-08-06T09:59:28;12.00;;;10.73;;
781;SDS011;374;52.568;13.402;2023-08-06T10:01:55;10.03;;;9.23;;
781;SDS011;374;52.568;13.402;2023-08-06T10:04:21;10.93;;;9.83;;
781;SDS011;374;52.568;13.402;2023-08-06T10:06:48;9.77;;;8.87;;
781;SDS011;374;52.568;13.402;2023-08-06T10:09:13;13.93;;;9.47;;
781;SDS011;374;52.568;13.402;2023-08-06T10:11:39;8.90;;;8.10;;
781;SDS011;374;52.568;13.402;2023-08-06T10:14:09;7.97;;;7.27;;
781;SDS011;374;52.568;13.402;2023-08-06T10:16:38;8.43;;;6.70;;
781;SDS011;374;52.568;13.402;2023-08-06T10:19:05;7.63;;;6.93;;
781;SDS011;374;52.568;13.402;2023-08-06T10:21:34;8.40;;;7.70;;
781;SDS011;374;52.568;13.402;2023-08-06T10:23:59;9.20;;;8.40;;
781;SDS011;374;52.568;13.402;2023-08-06T10:26:27;7.00;;;6.40;;
781;SDS011;374;52.568;13.402;2023-08-06T10:28:53;6.37;;;5.87;;
781;SDS011;374;52.568;13.402;2023-08-06T10:31:19;5.77;;;5.27;;
781;SDS011;374;52.568;13.402;2023-08-06T10:33:45;6.00;;;5.50;;
781;SDS011;374;52.568;13.402;2023-08-06T10:36:14;6.37;;;5.77;;
781;SDS011;374;52.568;13.402;2023-08-06T10:38:47;6.50;;;6.00;;
781;SDS011;374;52.568;13.402;2023-08-06T10:41:22;5.60;;;5.20;;
781;SDS011;374;52.568;13.402;2023-08-06T10:43:51;6.67;;;6.10;;
781;SDS011;374;52.568;13.402;2023-08-06T10:46:26;7.00;;;6.30;;
781;SDS011;374;52.568;13.402;2023-08-06T10:48:52;7.23;;;6.60;;
781;SDS011;374;52.568;13.402;2023-08-06T10:51:17;8.57;;;7.87;;
781;SDS011;374;52.568;13.402;2023-08-06T10:53:44;8.30;;;7.60;;
781;SDS011;374;52.568;13.402;2023-08-06T10:56:11;9.33;;;8.50;;
781;SDS011;374;52.568;13.402;2023-08-06T10:58:41;9.13;;;8.17;;
781;SDS011;374;52.568;13.402;2023-08-06T11:01:07;10.43;;;9.43;;
781;SDS011;374;52.568;13.402;2023-08-06T11:03:33;9.70;;;8.80;;
781;SDS011;374;52.568;13.402;2023-08-06T11:05:59;9.50;;;8.60;;
781;SDS011;374;52.568;13.402;2023-08-06T11:08:28;7.97;;;7.37;;
781;SDS011;374;52.568;13.402;2023-08-06T11:11:08;9.30;;;8.50;;
781;SDS011;374;52.568;13.402;2023-08-06T11:13:36;8.23;;;7.60;;
781;SDS011;374;52.568;13.402;2023-08-06T11:16:03;9.03;;;8.33;;
781;SDS011;374;52.568;13.402;2023-08-06T11:18:28;9.97;;;9.07;;
781;SDS011;374;52.568;13.402;2023-08-06T11:20:54;9.20;;;8.40;;
781;SDS011;374;52.568;13.402;2023-08-06T11:23:23;12.27;;;8.33;;
781;SDS011;374;52.568;13.402;2023-08-06T11:25:50;9.93;;;8.93;;
781;SDS011;374;52.568;13.402;2023-08-06T11:28:19;9.10;;;8.30;;
781;SDS011;374;52.568;13.402;2023-08-06T11:30:46;10.03;;;9.03;;
781;SDS011;374;52.568;13.402;2023-08-06T11:33:12;9.90;;;9.03;;
781;SDS011;374;52.568;13.402;2023-08-06T11:35:37;9.10;;;8.37;;
781;SDS011;374;52.568;13.402;2023-08-06T11:38:04;10.00;;;9.03;;
781;SDS011;374;52.568;13.402;2023-08-06T11:40:31;9.80;;;8.90;;
781;SDS011;374;52.568;13.402;2023-08-06T11:42:57;9.37;;;8.57;;
781;SDS011;374;52.568;13.402;2023-08-06T11:45:26;10.10;;;9.10;;
781;SDS011;374;52.568;13.402;2023-08-06T11:47:51;9.97;;;9.00;;
781;SDS011;374;52.568;13.402;2023-08-06T11:50:24;10.60;;;9.70;;
781;SDS011;374;52.568;13.402;2023-08-06T11:52:59;10.30;;;9.40;;
781;SDS011;374;52.568;13.402;2023-08-06T11:55:28;8.60;;;7.90;;
781;SDS011;374;52.568;13.402;2023-08-06T11:57:54;10.27;;;9.47;;
781;SDS011;374;52.568;13.402;2023-08-06T12:00:20;10.93;;;9.90;;
781;SDS011;374;52.568;13.402;2023-08-06T12:02:48;11.13;;;10.13;;
781;SDS011;374;52.568;13.402;2023-08-06T12:05:19;12.07;;;10.87;;
781;SDS011;374;52.568;13.402;2023-08-06T12:07:46;11.40;;;10.33;;
781;SDS011;374;52.568;13.402;2023-08-06T12:10:15;12.70;;;11.50;;
781;SDS011;374;52.568;13.402;2023-08-06T12:12:42;10.83;;;9.73;;
781;SDS011;374;52.568;13.402;2023-08-06T12:15:08;10.10;;;9.20;;
781;SDS011;374;52.568;13.402;2023-08-06T12:17:34;10.30;;;9.40;;
781;SDS011;374;52.568;13.402;2023-08-06T12:20:01;15.63;;;11.97;;
781;SDS011;374;52.568;13.402;2023-08-06T12:22:29;10.13;;;9.13;;
781;SDS011;374;52.568;13.402;2023-08-06T12:24:57;11.03;;;10.07;;
781;SDS011;374;52.568;13.402;2023-08-06T12:27:22;10.27;;;9.33;;
781;SDS011;374;52.568;13.402;2023-08-06T12:29:48;10.70;;;9.80;;
781;SDS011;374;52.568;13.402;2023-08-06T12:32:14;11.00;;;9.90;;
781;SDS011;374;52.568;13.402;2023-08-06T12:34:40;12.03;;;10.80;;
781;SDS011;374;52.568;13.402;2023-08-06T12:37:07;11.10;;;10.10;;
781;SDS011;374;52.568;13.402;2023-08-06T12:39:33;12.10;;;11.07;;
781;SDS011;374;52.568;13.402;2023-08-06T12:42:03;11.80;;;10.70;;
781;SDS011;374;52.568;13.402;2023-08-06T12:44:29;10.93;;;9.93;;
781;SDS011;374;52.568;13.402;2023-08-06T12:46:55;11.00;;;10.10;;
781;SDS011;374;52.568;13.402;2023-08-06T12:49:21;10.50;;;9.60;;
781;SDS011;374;52.568;13.402;2023-08-06T12:51:47;11.50;;;10.50;;
781;SDS011;374;52.568;13.402;2023-08-06T12:54:16;11.57;;;10.57;;
781;SDS011;374;52.568;13.402;2023-08-06T12:56:43;11.60;;;10.50;;
781;SDS011;374;52.568;13.402;2023-08-06T12:59:09;12.33;;;9.87;;
781;SDS011;374;52.568;13.402;2023-08-06T13:01:34;11.33;;;10.33;;
781;SDS011;374;52.568;13.402;2023-08-06T13:04:00;11.17;;;10.17;;
781;SDS011;374;52.568;13.402;2023-08-06T13:06:25;10.33;;;9.33;;
781;SDS011;374;52.568;13.402;2023-08-06T13:08:51;10.40;;;9.33;;
781;SDS011;374;52.568;13.402;2023-08-06T13:11:16;10.60;;;8.83;;
781;SDS011;374;52.568;13.402;2023-08-06T13:13:42;11.63;;;9.10;;
781;SDS011;374;52.568;13.402;2023-08-06T13:16:07;12.30;;;9.23;;
781;SDS011;374;52.568;13.402;2023-08-06T13:18:33;9.70;;;8.63;;
781;SDS011;374;52.568;13.402;2023-08-06T13:20:58;9.87;;;9.00;;
781;SDS011;374;52.568;13.402;2023-08-06T13:23:24;9.73;;;8.70;;
781;SDS011;374;52.568;13.402;2023-08-06T13:25:49;10.53;;;9.43;;
781;SDS011;374;52.568;13.402;2023-08-06T13:28:15;10.83;;;9.73;;
781;SDS011;374;52.568;13.402;2023-08-06T13:30:40;12.00;;;9.13;;
781;SDS011;374;52.568;13.402;2023-08-06T13:33:11;10.17;;;9.20;;
781;SDS011;374;52.568;13.402;2023-08-06T13:35:37;9.30;;;8.40;;
781;SDS011;374;52.568;13.402;2023-08-06T13:38:06;9.60;;;8.70;;
781;SDS011;374;52.568;13.402;2023-08-06T13:40:32;10.10;;;8.80;;
781;SDS011;374;52.568;13.402;2023-08-06T13:42:59;10.30;;;9.27;;
781;SDS011;374;52.568;13.402;2023-08-06T13:45:25;10.43;;;7.83;;
781;SDS011;374;52.568;13.402;2023-08-06T13:47:50;9.70;;;8.70;;
781;SDS011;374;52.568;13.402;2023-08-06T13:50:20;9.17;;;8.27;;
781;SDS011;374;52.568;13.402;2023-08-06T13:52:47;8.70;;;7.83;;
781;SDS011;374;52.568;13.402;2023-08-06T13:55:12;8.50;;;7.17;;
781;SDS011;374;52.568;13.402;2023-08-06T13:57:38;7.83;;;6.73;;
781;SDS011;374;52.568;13.402;2023-08-06T14:00:03;6.00;;;5.40;;
781;SDS011;374;52.568;13.402;2023-08-06T14:02:30;8.20;;;6.50;;
781;SDS011;374;52.568;13.402;2023-08-06T14:04:56;7.00;;;6.40;;
781;SDS011;374;52.568;13.402;2023-08-06T14:07:21;6.83;;;6.27;;
781;SDS011;374;52.568;13.402;2023-08-06T14:09:47;6.23;;;5.73;;
781;SDS011;374;52.568;13.402;2023-08-06T14:12:20;7.27;;;6.57;;
781;SDS011;374;52.568;13.402;2023-08-06T14:14:45;6.17;;;5.40;;
781;SDS011;374;52.568;13.402;2023-08-06T14:17:11;8.80;;;6.67;;
781;SDS011;374;52.568;13.402;2023-08-06T14:19:36;10.30;;;9.20;;
781;SDS011;374;52.568;13.402;2023-08-06T14:22:02;7.50;;;6.83;;
781;SDS011;374;52.568;13.402;2023-08-06T14:24:27;6.53;;;5.73;;
781;SDS011;374;52.568;13.402;2023-08-06T14:26:53;7.03;;;6.37;;
781;SDS011;374;52.568;13.402;2023-08-06T14:29:18;6.27;;;5.77;;
781;SDS011;374;52.568;13.402;2023-08-06T14:31:44;6.33;;;5.80;;
781;SDS011;374;52.568;13.402;2023-08-06T14:34:09;7.73;;;6.10;;
781;SDS011;374;52.568;13.402;2023-08-06T14:36:35;6.87;;;6.27;;
781;SDS011;374;52.568;13.402;2023-08-06T14:39:00;7.43;;;5.97;;
781;SDS011;374;52.568;13.402;2023-08-06T14:41:26;6.70;;;6.20;;
781;SDS011;374;52.568;13.402;2023-08-06T14:43:52;6.33;;;5.73;;
781;SDS011;374;52.568;13.402;2023-08-06T14:46:18;8.10;;;5.03;;
781;SDS011;374;52.568;13.402;2023-08-06T14:48:44;5.80;;;5.37;;
781;SDS011;374;52.568;13.402;2023-08-06T14:51:09;5.73;;;5.23;;
781;SDS011;374;52.568;13.402;2023-08-06T14:53:35;5.73;;;5.33;;
781;SDS011;374;52.568;13.402;2023-08-06T14:56:00;5.13;;;4.63;;
781;SDS011;374;52.568;13.402;2023-08-06T14:58:26;5.57;;;5.17;;
781;SDS011;374;52.568;13.402;2023-08-06T15:00:52;5.30;;;4.80;;
781;SDS011;374;52.568;13.402;2023-08-06T15:03:17;7.70;;;6.43;;
781;SDS011;374;52.568;13.402;2023-08-06T15:05:43;5.90;;;5.30;;
781;SDS011;374;52.568;13.402;2023-08-06T15:08:11;6.07;;;5.57;;
781;SDS011;374;52.568;13.402;2023-08-06T15:10:36;5.77;;;5.37;;
781;SDS011;374;52.568;13.402;2023-08-06T15:13:02;5.63;;;5.07;;
781;SDS011;374;52.568;13.402;2023-08-06T15:15:28;4.97;;;4.57;;
781;SDS011;374;52.568;13.402;2023-08-06T15:17:53;5.40;;;4.90;;